Charlotte, NC (28256)

6:30 PM EDT on March 26, 2015 (GMT -0400)
Houston Hills Neighborhood | | Change Station
CLOSE
Current Station
Personal Weather Station
Location: Charlotte, NC
Elevation: 680 ft
Nearby Weather Stations

Elev 680 ft 35.33 °N, 80.70 °W | Updated 2 seconds ago

Partly Cloudy
Partly Cloudy
72.0 °F
Feels Like 75 °F
N
0.0
Wind Variable Wind from North
Gusts 1.0 mph

Today
High -- | Low -- °F
--% Chance of Precip.
Yesterday
High -- | Low -- °F
Precip. -- in
7:18 AM 7:39 PM
Waxing Crescent, 46% visible
Pressure 29.81 in
Visibility 10.0 miles
Clouds Clear
Heat Index 75 °F
Dew Point 61 °F
Humidity 69%
Rainfall 0.02 in
Snow Depth Not available.
UV 2 out of 12
Pollen 9.60 out of 12
Air Quality Not available.
Flu Activity Not available.
METAR KJQF 262150Z 21012G15KT 10SM CLR 22/12 A2981

More Conditions Fewer Conditions

Pressure 29.81 in
Visibility 10.0 miles
Clouds Clear
Heat Index 75 °F
Dew Point 61 °F
Humidity 69%
Rainfall 0.02 in
Snow Depth Not available.
UV 2 out of 12
Pollen 9.60 out of 12
Air Quality Not available.
Flu Activity Not available.
METAR KJQF 262150Z 21012G15KT 10SM CLR 22/12 A2981

More Conditions Fewer Conditions

10-Day Weather Forecast

Almanac

Astronomy

Mar. 26, 2015 Rise Set
Actual Time
Civil Twilight
Nautical Twilight
Astronomical Twilight
Moon
Length of Visible Light
Length of Day
Tomorrow will be .
, % of the Moon is Illuminated

Today's Extremes

State Highs State Lows

Community

WunderPhotos

Upload Photos

1,808,628 photos uploaded!

WunderBlogs® & News

Nearby

Air Quality

  Air Quality AQ Index Pollutant
Not available.

Snow Depth

Station Depth Elevation

Earthquake Activity

City Distance Mag. Time & Date
Minimum magnitude displayed is 2.5.

Coastal Water Temperatures

Place Temperature

Stations

Nearby Weather Stations

Station Location Temp. Windchill Dew Point Humidity Wind Precip. Elev Updated Type